createdAt,value
2022-08-14T00:02:03.061Z,18.52
2022-08-14T00:04:42.322Z,18.52
2022-08-14T00:07:13.757Z,18.51
2022-08-14T00:09:56.168Z,18.51
2022-08-14T00:12:37.742Z,18.51
2022-08-14T00:15:10.187Z,18.52
2022-08-14T00:17:47.223Z,18.49
2022-08-14T00:20:24.173Z,18.47
2022-08-14T00:23:08.187Z,18.49
2022-08-14T00:25:42.124Z,18.45
2022-08-14T00:28:15.225Z,18.35
2022-08-14T00:30:46.084Z,18.30
2022-08-14T00:33:15.312Z,18.27
2022-08-14T00:36:35.578Z,18.24
2022-08-14T00:38:31.922Z,18.25
2022-08-14T00:40:59.512Z,18.28
2022-08-14T00:43:32.216Z,18.28
2022-08-14T00:46:05.211Z,18.29
2022-08-14T00:48:36.930Z,18.30
2022-08-14T00:51:09.577Z,18.40
2022-08-14T00:53:38.728Z,18.44
2022-08-14T00:56:10.368Z,18.45
2022-08-14T00:58:45.084Z,18.44
2022-08-14T01:01:16.893Z,18.43
2022-08-14T01:03:44.924Z,18.51
2022-08-14T01:06:15.445Z,18.54
2022-08-14T01:08:51.114Z,18.51
2022-08-14T01:11:25.780Z,18.54
2022-08-14T01:14:01.667Z,18.56
2022-08-14T01:16:52.807Z,18.60
2022-08-14T01:19:38.663Z,18.64
2022-08-14T01:22:12.340Z,18.69
2022-08-14T01:24:41.628Z,18.72
2022-08-14T01:27:18.828Z,18.76
2022-08-14T01:30:00.783Z,18.79
2022-08-14T01:32:31.505Z,18.86
2022-08-14T01:35:21.071Z,18.89
2022-08-14T01:37:56.882Z,18.95
2022-08-14T01:40:33.079Z,18.96
2022-08-14T01:43:02.793Z,19.02
2022-08-14T01:45:40.041Z,19.07
2022-08-14T01:48:13.417Z,19.09
2022-08-14T01:50:42.229Z,19.16
2022-08-14T01:53:10.455Z,19.23
2022-08-14T01:55:40.251Z,19.28
2022-08-14T01:58:20.361Z,19.33
2022-08-14T02:00:54.956Z,19.35
2022-08-14T02:03:34.800Z,19.41
2022-08-14T02:06:04.016Z,19.50
2022-08-14T02:08:52.902Z,19.57
2022-08-14T02:11:24.201Z,19.58
2022-08-14T02:14:07.556Z,19.56
2022-08-14T02:16:39.466Z,19.61
2022-08-14T02:19:08.832Z,19.62
2022-08-14T02:21:43.341Z,19.68
2022-08-14T02:24:39.827Z,19.71
2022-08-14T02:28:25.653Z,19.84
2022-08-14T02:29:59.582Z,20.00
2022-08-14T02:32:30.249Z,20.12
2022-08-14T02:35:10.464Z,20.19
2022-08-14T02:37:47.473Z,20.27
2022-08-14T02:40:16.652Z,20.34
2022-08-14T02:42:54.105Z,20.44
2022-08-14T02:45:22.561Z,20.76
2022-08-14T02:47:53.914Z,21.17
2022-08-14T02:50:27.029Z,21.76
2022-08-14T02:52:54.667Z,22.50
2022-08-14T02:55:24.281Z,23.24
2022-08-14T02:57:58.007Z,23.93
2022-08-14T03:00:26.167Z,24.68
2022-08-14T03:02:58.733Z,25.40
2022-08-14T03:05:36.229Z,26.12
2022-08-14T03:08:05.862Z,26.83
2022-08-14T03:10:35.744Z,27.47
2022-08-14T03:13:04.841Z,28.07
2022-08-14T03:15:40.864Z,28.66
2022-08-14T03:18:11.736Z,29.27
2022-08-14T03:20:39.713Z,29.81
2022-08-14T03:23:07.023Z,30.28
2022-08-14T03:25:37.365Z,30.80
2022-08-14T03:28:07.326Z,31.38
2022-08-14T03:30:39.014Z,31.88
2022-08-14T03:33:08.327Z,32.40
2022-08-14T03:35:40.167Z,32.89
2022-08-14T03:39:10.782Z,33.29
2022-08-14T03:41:16.785Z,33.78
2022-08-14T03:43:44.389Z,34.20
2022-08-14T03:46:52.359Z,34.58
2022-08-14T03:49:03.179Z,34.90
2022-08-14T03:51:30.428Z,35.26
2022-08-14T03:53:58.493Z,35.62
2022-08-14T03:56:27.760Z,35.99
2022-08-14T03:58:58.908Z,36.27
2022-08-14T04:01:29.192Z,36.55
2022-08-14T04:04:07.907Z,36.88
2022-08-14T04:06:44.543Z,37.12
2022-08-14T04:09:16.906Z,37.42
2022-08-14T04:11:45.512Z,37.77
2022-08-14T04:14:16.464Z,38.01
2022-08-14T04:16:46.600Z,38.25
2022-08-14T04:19:24.574Z,38.46
2022-08-14T04:22:03.171Z,38.68
2022-08-14T04:24:38.037Z,38.90
2022-08-14T04:27:10.659Z,39.17
2022-08-14T04:29:42.658Z,39.35
2022-08-14T04:33:02.075Z,39.68
2022-08-14T04:35:00.629Z,39.80
2022-08-14T04:37:46.296Z,39.98
2022-08-14T04:40:40.505Z,40.25
2022-08-14T04:43:38.576Z,40.40
2022-08-14T04:46:08.498Z,40.67
2022-08-14T04:48:41.027Z,40.90
2022-08-14T04:51:15.449Z,41.10
2022-08-14T04:53:44.543Z,41.33
2022-08-14T04:56:34.347Z,41.60
2022-08-14T04:59:09.710Z,41.82
2022-08-14T05:01:45.187Z,41.94
2022-08-14T05:04:19.742Z,42.11
2022-08-14T05:06:49.255Z,42.24
2022-08-14T05:09:17.245Z,42.47
2022-08-14T05:11:44.825Z,42.59
2022-08-14T05:14:16.670Z,42.80
2022-08-14T05:17:01.608Z,42.94
2022-08-14T05:19:32.082Z,42.94
2022-08-14T05:22:16.764Z,43.12
2022-08-14T05:24:50.486Z,43.29
2022-08-14T05:27:23.301Z,43.42
2022-08-14T05:29:56.829Z,43.76
2022-08-14T05:32:27.330Z,43.86
2022-08-14T05:34:58.513Z,43.81
2022-08-14T05:37:28.263Z,43.51
2022-08-14T05:39:58.513Z,43.07
2022-08-14T05:42:29.015Z,42.61
2022-08-14T05:44:59.012Z,42.32
2022-08-14T05:47:28.781Z,41.99
2022-08-14T05:50:02.167Z,41.68
2022-08-14T05:52:39.243Z,41.56
2022-08-14T05:55:08.587Z,41.52
2022-08-14T05:57:47.937Z,41.51
2022-08-14T06:00:24.422Z,41.37
2022-08-14T06:02:58.500Z,41.30
2022-08-14T06:05:28.862Z,41.24
2022-08-14T06:08:00.366Z,41.19
2022-08-14T06:10:28.929Z,41.16
2022-08-14T06:13:02.205Z,41.03
2022-08-14T06:15:30.588Z,40.91
2022-08-14T06:17:58.862Z,40.85
2022-08-14T06:20:28.175Z,40.55
2022-08-14T06:22:56.909Z,40.21
2022-08-14T06:25:24.880Z,39.90
2022-08-14T06:27:52.369Z,39.63
2022-08-14T06:30:21.095Z,39.44
2022-08-14T06:32:52.394Z,39.36
2022-08-14T06:35:23.875Z,39.35
2022-08-14T06:37:54.979Z,39.58
2022-08-14T06:40:26.952Z,39.80
2022-08-14T06:42:56.608Z,39.88
2022-08-14T06:45:26.505Z,40.07
2022-08-14T06:47:54.328Z,40.18
2022-08-14T06:50:28.209Z,40.26
2022-08-14T06:53:00.560Z,40.52
2022-08-14T06:55:29.404Z,40.77
2022-08-14T06:57:58.026Z,40.95
2022-08-14T07:00:31.257Z,40.99
2022-08-14T07:03:17.943Z,40.70
2022-08-14T07:05:55.045Z,40.33
2022-08-14T07:08:29.749Z,39.92
2022-08-14T07:11:04.260Z,39.46
2022-08-14T07:13:31.615Z,39.20
2022-08-14T07:16:00.604Z,39.04
2022-08-14T07:18:29.077Z,39.11
2022-08-14T07:20:56.924Z,39.24
2022-08-14T07:23:24.528Z,39.36
2022-08-14T07:25:55.060Z,39.36
2022-08-14T07:28:25.198Z,39.19
2022-08-14T07:31:04.908Z,38.99
2022-08-14T07:33:35.350Z,38.66
2022-08-14T07:36:26.660Z,38.49
2022-08-14T07:38:53.609Z,38.42
2022-08-14T07:41:20.890Z,38.37
2022-08-14T07:43:56.090Z,38.30
2022-08-14T07:46:29.114Z,38.26
2022-08-14T07:48:58.399Z,38.24
2022-08-14T07:51:33.369Z,38.17
2022-08-14T07:54:04.547Z,38.12
2022-08-14T07:56:46.669Z,38.03
2022-08-14T07:59:18.822Z,38.00
2022-08-14T08:01:51.194Z,37.97
2022-08-14T08:04:29.775Z,38.00
2022-08-14T08:07:01.623Z,37.98
2022-08-14T08:09:34.302Z,38.01
2022-08-14T08:12:04.825Z,38.07
2022-08-14T08:14:55.478Z,38.07
2022-08-14T08:17:25.865Z,37.85
2022-08-14T08:19:53.190Z,37.71
2022-08-14T08:22:21.986Z,37.71
2022-08-14T08:24:50.340Z,37.58
2022-08-14T08:27:21.388Z,37.44
2022-08-14T08:29:51.072Z,37.25
2022-08-14T08:32:18.917Z,37.15
2022-08-14T08:34:47.582Z,36.91
2022-08-14T08:37:15.320Z,36.86
2022-08-14T08:40:01.618Z,36.72
2022-08-14T08:42:31.634Z,36.67
2022-08-14T08:45:06.677Z,36.56
2022-08-14T08:47:42.267Z,36.42
2022-08-14T08:50:31.082Z,36.42
2022-08-14T08:52:59.732Z,36.20
2022-08-14T08:55:30.552Z,36.09
2022-08-14T08:57:59.068Z,35.73
2022-08-14T09:00:27.102Z,35.60
2022-08-14T09:02:56.786Z,35.40
2022-08-14T09:05:24.611Z,35.22
2022-08-14T09:07:56.365Z,35.00
2022-08-14T09:10:24.159Z,34.89
2022-08-14T09:12:56.429Z,34.67
2022-08-14T09:15:24.155Z,34.49
2022-08-14T09:17:52.363Z,34.27
2022-08-14T09:20:25.767Z,34.11
2022-08-14T09:22:55.075Z,33.93
2022-08-14T09:25:58.899Z,33.78
2022-08-14T09:28:10.213Z,33.63
2022-08-14T09:30:39.429Z,33.50
2022-08-14T09:33:12.553Z,33.36
2022-08-14T09:35:43.240Z,33.20
2022-08-14T09:38:27.337Z,33.08
2022-08-14T09:41:03.683Z,32.96
2022-08-14T09:43:42.750Z,32.77
2022-08-14T09:46:10.448Z,32.63
2022-08-14T09:48:44.462Z,32.58
2022-08-14T09:51:21.245Z,32.50
2022-08-14T09:54:22.613Z,32.39
2022-08-14T09:56:57.124Z,32.23
2022-08-14T09:59:32.151Z,32.09
2022-08-14T10:02:01.403Z,31.98
2022-08-14T10:04:35.728Z,31.89
2022-08-14T10:07:05.810Z,31.74
2022-08-14T10:09:35.021Z,31.60
2022-08-14T10:12:04.396Z,31.47
2022-08-14T10:14:35.060Z,31.26
2022-08-14T10:17:06.976Z,31.16
2022-08-14T10:19:36.474Z,31.03
2022-08-14T10:23:13.513Z,30.79
2022-08-14T10:25:00.027Z,30.64
2022-08-14T10:27:28.792Z,30.52
2022-08-14T10:30:01.130Z,30.37
2022-08-14T10:32:40.214Z,30.27
2022-08-14T10:35:13.776Z,30.17
2022-08-14T10:37:50.095Z,30.13
2022-08-14T10:40:38.265Z,30.05
2022-08-14T10:43:24.067Z,30.03
2022-08-14T10:46:03.909Z,29.94
2022-08-14T10:48:55.497Z,29.88
2022-08-14T10:51:34.009Z,29.78
2022-08-14T10:54:17.066Z,29.74
2022-08-14T10:56:56.088Z,29.62
2022-08-14T10:59:35.432Z,29.60
2022-08-14T11:02:04.466Z,29.52
2022-08-14T11:04:32.328Z,29.46
2022-08-14T11:07:00.573Z,29.42
2022-08-14T11:09:32.009Z,29.39
2022-08-14T11:12:33.821Z,29.30
2022-08-14T11:14:51.322Z,29.30
2022-08-14T11:17:27.969Z,29.30
2022-08-14T11:19:59.850Z,29.26
2022-08-14T11:22:52.517Z,29.24
2022-08-14T11:25:16.305Z,29.16
2022-08-14T11:27:45.154Z,29.13
2022-08-14T11:30:51.368Z,29.12
2022-08-14T11:33:05.373Z,29.05
2022-08-14T11:35:44.132Z,29.02
2022-08-14T11:38:17.111Z,28.94
2022-08-14T11:40:47.179Z,28.94
2022-08-14T11:43:15.631Z,28.89
2022-08-14T11:45:45.997Z,28.87
2022-08-14T11:49:04.323Z,28.82
2022-08-14T11:51:12.364Z,28.75
2022-08-14T11:53:42.080Z,28.71
2022-08-14T11:56:10.962Z,28.67
2022-08-14T11:58:39.017Z,28.64
2022-08-14T12:01:07.638Z,28.63
2022-08-14T12:03:46.042Z,28.60
2022-08-14T12:06:28.701Z,28.57
2022-08-14T12:09:04.562Z,28.54
2022-08-14T12:11:43.726Z,28.52
2022-08-14T12:14:13.396Z,28.51
2022-08-14T12:16:59.987Z,28.44
2022-08-14T12:19:33.779Z,28.47
2022-08-14T12:22:03.228Z,28.46
2022-08-14T12:24:36.545Z,28.47
2022-08-14T12:27:04.348Z,28.44
2022-08-14T12:29:31.993Z,28.38
2022-08-14T12:32:12.549Z,28.30
2022-08-14T12:34:44.860Z,28.17
2022-08-14T12:37:12.505Z,28.13
2022-08-14T12:39:40.748Z,28.08
2022-08-14T12:42:08.722Z,28.07
2022-08-14T12:44:44.656Z,28.04
2022-08-14T12:47:15.343Z,27.98
2022-08-14T12:49:52.707Z,27.98
2022-08-14T12:52:41.720Z,27.90
2022-08-14T12:55:21.695Z,27.82
2022-08-14T12:57:53.228Z,27.77
2022-08-14T13:00:23.955Z,27.63
2022-08-14T13:02:55.124Z,27.57
2022-08-14T13:05:24.149Z,27.48
2022-08-14T13:07:54.617Z,27.45
2022-08-14T13:10:47.884Z,27.38
2022-08-14T13:13:15.425Z,27.34
2022-08-14T13:15:45.724Z,27.26
2022-08-14T13:18:15.781Z,27.23
2022-08-14T13:20:51.272Z,27.22
2022-08-14T13:23:31.720Z,27.17
2022-08-14T13:26:00.896Z,27.16
2022-08-14T13:28:32.766Z,27.12
2022-08-14T13:31:01.186Z,27.09
2022-08-14T13:33:29.949Z,27.00
2022-08-14T13:36:00.745Z,26.94
2022-08-14T13:38:28.560Z,26.88
2022-08-14T13:40:57.529Z,26.89
2022-08-14T13:43:25.342Z,26.84
2022-08-14T13:46:00.857Z,26.82
2022-08-14T13:48:33.117Z,26.81
2022-08-14T13:51:04.355Z,26.81
2022-08-14T13:53:35.172Z,26.64
2022-08-14T13:56:07.072Z,26.64
2022-08-14T13:58:47.031Z,26.64
2022-08-14T14:01:15.979Z,26.55
2022-08-14T14:03:50.390Z,26.53
2022-08-14T14:06:19.002Z,26.55
2022-08-14T14:08:48.161Z,26.56
2022-08-14T14:11:17.540Z,26.55
2022-08-14T14:13:47.274Z,26.51
2022-08-14T14:16:26.627Z,26.44
2022-08-14T14:19:09.581Z,26.22
2022-08-14T14:21:40.422Z,26.18
2022-08-14T14:24:08.046Z,26.13
2022-08-14T14:26:47.272Z,26.10
2022-08-14T14:29:15.050Z,26.07
2022-08-14T14:31:48.194Z,26.14
2022-08-14T14:34:29.315Z,26.10
2022-08-14T14:37:03.078Z,26.08
2022-08-14T14:39:38.214Z,25.99
2022-08-14T14:42:31.612Z,25.96
2022-08-14T14:45:07.575Z,25.90
2022-08-14T14:47:36.626Z,25.84
2022-08-14T14:50:04.810Z,25.77
2022-08-14T14:52:37.202Z,25.69
2022-08-14T14:55:07.853Z,25.54
2022-08-14T14:57:36.408Z,25.46
2022-08-14T15:00:12.928Z,25.41
2022-08-14T15:02:42.325Z,25.36
2022-08-14T15:05:10.659Z,25.31
2022-08-14T15:07:40.429Z,25.26
2022-08-14T15:10:27.343Z,25.19
2022-08-14T15:12:57.788Z,25.15
2022-08-14T15:15:27.972Z,25.07
2022-08-14T15:17:55.587Z,25.02
2022-08-14T15:20:30.559Z,24.98
2022-08-14T15:23:12.379Z,24.91
2022-08-14T15:25:40.799Z,24.87
2022-08-14T15:28:12.792Z,24.83
2022-08-14T15:30:41.079Z,24.78
2022-08-14T15:33:09.324Z,24.72
2022-08-14T15:35:37.935Z,24.66
2022-08-14T15:38:12.359Z,24.62
2022-08-14T15:40:51.299Z,24.56
2022-08-14T15:43:19.070Z,24.48
2022-08-14T15:45:47.330Z,24.41
2022-08-14T15:48:22.380Z,24.33
2022-08-14T15:50:51.686Z,24.24
2022-08-14T15:53:22.558Z,24.20
2022-08-14T15:55:52.957Z,24.17
2022-08-14T15:58:24.732Z,24.14
2022-08-14T16:01:12.687Z,24.07
2022-08-14T16:03:42.520Z,24.03
2022-08-14T16:06:17.687Z,24.00
2022-08-14T16:08:46.715Z,23.95
2022-08-14T16:11:18.127Z,23.91
2022-08-14T16:13:49.201Z,23.85
2022-08-14T16:16:47.885Z,23.80
2022-08-14T16:19:13.266Z,23.76
2022-08-14T16:22:01.769Z,23.72
2022-08-14T16:24:29.572Z,23.68
2022-08-14T16:27:00.564Z,23.64
2022-08-14T16:29:31.047Z,23.60
2022-08-14T16:31:59.748Z,23.58
2022-08-14T16:34:45.550Z,23.56
2022-08-14T16:37:19.501Z,23.50
2022-08-14T16:39:48.670Z,23.48
2022-08-14T16:43:02.790Z,23.41
2022-08-14T16:45:05.288Z,23.36
2022-08-14T16:47:35.193Z,23.34
2022-08-14T16:52:25.123Z,22.54
2022-08-14T16:54:56.523Z,22.32
2022-08-14T16:57:28.471Z,22.19
2022-08-14T17:00:00.641Z,22.08
2022-08-14T17:02:36.243Z,22.04
2022-08-14T17:05:17.252Z,22.30
2022-08-14T17:08:07.345Z,22.35
2022-08-14T17:10:52.317Z,21.95
2022-08-14T17:13:27.329Z,21.95
2022-08-14T17:16:25.260Z,22.00
2022-08-14T17:19:00.506Z,21.82
2022-08-14T17:21:32.521Z,21.73
2022-08-14T17:24:56.536Z,21.70
2022-08-14T17:26:55.497Z,21.65
2022-08-14T17:29:31.172Z,21.71
2022-08-14T17:32:02.184Z,21.56
2022-08-14T17:35:04.681Z,21.86
2022-08-14T17:37:44.816Z,21.51
2022-08-14T17:40:15.644Z,21.42
2022-08-14T17:42:51.378Z,21.49
2022-08-14T17:45:42.641Z,21.48
2022-08-14T17:49:13.896Z,21.68
2022-08-14T17:51:24.134Z,21.18
2022-08-14T17:54:02.967Z,21.17
2022-08-14T17:56:34.185Z,21.16
2022-08-14T17:59:07.108Z,21.00
2022-08-14T18:01:45.825Z,21.17
2022-08-14T18:04:28.328Z,20.99
2022-08-14T18:07:09.276Z,21.08
2022-08-14T18:09:56.971Z,21.08
2022-08-14T18:12:36.492Z,21.07
2022-08-14T18:15:16.441Z,21.16
2022-08-14T18:17:50.586Z,21.00
2022-08-14T18:21:40.212Z,20.99
2022-08-14T18:23:15.023Z,20.93
2022-08-14T18:25:52.010Z,21.01
2022-08-14T18:28:48.624Z,20.86
2022-08-14T18:31:43.687Z,21.17
2022-08-14T18:34:31.174Z,20.87
2022-08-14T18:37:14.293Z,20.75
2022-08-14T18:39:51.722Z,20.70
2022-08-14T18:42:35.328Z,20.80
2022-08-14T18:45:12.816Z,20.70
2022-08-14T18:48:14.716Z,20.66
2022-08-14T18:50:33.498Z,20.59
2022-08-14T18:53:10.895Z,20.77
2022-08-14T18:55:53.388Z,20.59
2022-08-14T18:58:31.059Z,20.69
2022-08-14T19:01:04.275Z,20.56
2022-08-14T19:03:36.869Z,20.62
2022-08-14T19:06:07.824Z,20.53
2022-08-14T19:08:45.725Z,20.64
2022-08-14T19:11:32.682Z,20.77
2022-08-14T19:14:05.072Z,20.43
2022-08-14T19:16:37.742Z,20.42
2022-08-14T19:19:12.589Z,20.40
2022-08-14T19:21:44.474Z,20.45
2022-08-14T19:24:43.649Z,20.63
2022-08-14T19:27:26.198Z,20.61
2022-08-14T19:30:20.468Z,20.54
2022-08-14T19:32:55.753Z,20.25
2022-08-14T19:35:49.097Z,20.25
2022-08-14T19:38:44.908Z,20.62
2022-08-14T19:41:19.158Z,20.37
2022-08-14T19:43:55.838Z,20.20
2022-08-14T19:46:38.979Z,20.28
2022-08-14T19:49:23.311Z,20.19
2022-08-14T19:52:05.674Z,20.11
2022-08-14T19:54:50.534Z,20.06
2022-08-14T19:57:31.143Z,20.05
2022-08-14T20:00:28.013Z,20.25
2022-08-14T20:03:11.759Z,20.24
2022-08-14T20:05:45.590Z,19.93
2022-08-14T20:11:01.431Z,19.88
2022-08-14T20:11:20.821Z,19.87
2022-08-14T20:14:01.966Z,19.94
2022-08-14T20:16:41.934Z,19.90
2022-08-14T20:19:25.403Z,20.10
2022-08-14T20:22:35.381Z,20.04
2022-08-14T20:24:54.733Z,19.75
2022-08-14T20:27:41.136Z,19.97
2022-08-14T20:30:33.597Z,19.92
2022-08-14T20:33:07.457Z,19.82
2022-08-14T20:35:51.780Z,19.95
2022-08-14T20:38:32.613Z,19.87
2022-08-14T20:41:05.619Z,19.79
2022-08-14T20:43:55.040Z,19.74
2022-08-14T20:46:38.357Z,19.88
2022-08-14T20:49:11.921Z,19.59
2022-08-14T20:51:54.781Z,19.71
2022-08-14T20:54:34.605Z,19.56
2022-08-14T20:57:21.804Z,19.85
2022-08-14T20:59:56.680Z,19.57
2022-08-14T21:02:49.762Z,19.71
2022-08-14T21:05:33.579Z,19.51
2022-08-14T21:08:08.091Z,19.52
2022-08-14T21:10:43.803Z,19.48
2022-08-14T21:14:08.851Z,19.47
2022-08-14T21:16:33.088Z,19.45
2022-08-14T21:18:58.868Z,19.45
2022-08-14T21:21:41.272Z,19.40
2022-08-14T21:24:38.670Z,19.46
2022-08-14T21:27:12.806Z,19.48
2022-08-14T21:29:53.665Z,19.44
2022-08-14T21:32:33.808Z,19.28
2022-08-14T21:35:08.099Z,19.27
2022-08-14T21:37:47.506Z,19.36
2022-08-14T21:40:42.264Z,19.45
2022-08-14T21:43:18.474Z,19.29
2022-08-14T21:45:58.856Z,19.38
2022-08-14T21:48:32.569Z,19.33
2022-08-14T21:51:54.640Z,19.23
2022-08-14T21:54:00.024Z,19.14
2022-08-14T21:56:38.287Z,19.18
2022-08-14T21:59:29.307Z,19.40
2022-08-14T22:02:01.082Z,19.09
2022-08-14T22:04:40.496Z,19.10
2022-08-14T22:07:16.710Z,19.17
2022-08-14T22:09:55.161Z,19.04
2022-08-14T22:12:57.785Z,19.07
2022-08-14T22:15:16.141Z,18.95
2022-08-14T22:17:44.614Z,18.87
2022-08-14T22:20:19.992Z,18.81
2022-08-14T22:22:48.620Z,18.79
2022-08-14T22:25:33.522Z,18.84
2022-08-14T22:28:05.993Z,18.84
2022-08-14T22:30:34.360Z,18.82
2022-08-14T22:33:02.706Z,18.81
2022-08-14T22:35:30.400Z,18.78
2022-08-14T22:38:36.417Z,18.75
2022-08-14T22:41:05.656Z,18.81
2022-08-14T22:43:37.136Z,18.80
2022-08-14T22:46:14.761Z,18.78
2022-08-14T22:48:45.524Z,18.77
2022-08-14T22:51:17.726Z,18.85
2022-08-14T22:53:48.394Z,18.85
2022-08-14T22:56:20.473Z,18.81
2022-08-14T22:58:54.079Z,18.90
2022-08-14T23:01:55.763Z,18.92
2022-08-14T23:04:35.546Z,18.76
2022-08-14T23:07:14.396Z,18.73
2022-08-14T23:10:33.306Z,18.75
2022-08-14T23:12:54.437Z,18.72
2022-08-14T23:15:28.963Z,18.66
2022-08-14T23:17:58.872Z,18.56
2022-08-14T23:20:29.536Z,18.51
2022-08-14T23:22:57.862Z,18.47
2022-08-14T23:25:57.014Z,18.51
2022-08-14T23:28:34.010Z,18.56
2022-08-14T23:31:14.072Z,18.58
2022-08-14T23:33:51.939Z,18.44
2022-08-14T23:36:53.015Z,18.55
2022-08-14T23:39:32.915Z,18.52
2022-08-14T23:42:04.680Z,18.39
2022-08-14T23:44:35.587Z,18.32
2022-08-14T23:47:11.843Z,18.32
2022-08-14T23:50:01.375Z,18.27
2022-08-14T23:53:06.218Z,18.38
2022-08-14T23:55:29.392Z,18.27
2022-08-14T23:57:58.932Z,18.13
